Sibay, Russia
Current Conditions -  °F | °C
As of 9:00 AM on Thursday 27 Nov 2014 (Local Time) from USCM Reporting Station
Scattered Clouds Scattered Clouds  
Wind Chill: -2°   Ceiling: Unl
Heat Index:   Visibility: 6mi
Dew Point:   Wind: 7mph
Humidity: 79%   Direction: 10°N
Pressure: 30.27"   Gusts: NA
Location:  52.7°N, 58.65°E
Report Text: USCM 270400Z 01003MPS 9999 SCT100 M13/M16 Q1025 NOSIG 01090060RMK QFE730
Loading
Personal Weather Stations






























Interactive Weather Map New forecast layout! Learn more

10-Day Weather Forecast

Advertisements
Track Severe Weather on mobile